Terminal Aerodrome Forecast
Issued by NWS Hastings, NE

Home | Current Version | Previous Version | Text Only | Print | Product List | Glossary On
Versions: 1 2 3 4 5 6 7 8 9 10 11 12 13 14 15 16 17 18 19 20 21 22 23 24 25 26 27 28 29 30 31 32 33
000
FTUS43 KGID 210520
TAFGRI
TAF
KGRI 210520Z 2106/2206 34008KT P6SM FEW250
     FM212000 09008KT P6SM SCT150
     FM212200 09008KT P6SM BKN110
     FM220400 VRB06KT P6SM BKN030=

USA.gov is the U.S. government's official web portal to all federal, state and local government web resources and services.